createdAt,value
2022-12-14T00:02:22.304Z,15.45
2022-12-14T00:07:49.090Z,15.82
2022-12-14T00:13:21.191Z,18.25
2022-12-14T00:18:52.950Z,19.20
2022-12-14T00:24:22.797Z,12.50
2022-12-14T00:29:52.704Z,23.93
2022-12-14T00:35:21.388Z,21.90
2022-12-14T00:40:50.928Z,18.60
2022-12-14T00:46:22.399Z,19.38
2022-12-14T00:51:51.737Z,18.38
2022-12-14T00:57:15.041Z,15.98
2022-12-14T01:02:41.336Z,26.65
2022-12-14T01:08:12.733Z,27.92
2022-12-14T01:13:42.384Z,22.90
2022-12-14T01:19:08.184Z,24.50
2022-12-14T01:24:37.686Z,21.52
2022-12-14T01:30:00.963Z,21.10
2022-12-14T01:40:59.750Z,20.58
2022-12-14T01:46:35.085Z,27.27
2022-12-14T01:52:10.914Z,21.92
2022-12-14T01:57:43.832Z,16.80
2022-12-14T02:03:13.973Z,25.38
2022-12-14T02:08:48.360Z,19.70
2022-12-14T02:14:17.553Z,25.52
2022-12-14T02:19:46.878Z,19.92
2022-12-14T02:25:42.886Z,19.10
2022-12-14T02:31:22.539Z,20.83
2022-12-14T02:36:58.991Z,19.77
2022-12-14T02:42:38.631Z,15.15
2022-12-14T02:48:07.298Z,21.23
2022-12-14T02:53:44.483Z,25.45
2022-12-14T02:59:14.848Z,31.40
2022-12-14T03:04:46.204Z,18.42
2022-12-14T03:10:21.669Z,14.27
2022-12-14T03:15:48.513Z,19.77
2022-12-14T03:21:20.396Z,16.55
2022-12-14T03:26:51.342Z,14.43
2022-12-14T03:32:18.963Z,18.30
2022-12-14T03:37:53.079Z,23.20
2022-12-14T03:43:24.397Z,27.23
2022-12-14T03:48:57.863Z,33.63
2022-12-14T03:54:37.361Z,32.53
2022-12-14T04:00:09.205Z,33.35
2022-12-14T04:05:48.933Z,23.40
2022-12-14T04:11:35.964Z,20.75
2022-12-14T04:17:21.454Z,26.27
2022-12-14T04:22:49.587Z,17.08
2022-12-14T04:28:37.863Z,17.23
2022-12-14T04:34:07.015Z,28.42
2022-12-14T04:39:41.524Z,24.30
2022-12-14T04:45:18.663Z,25.88
2022-12-14T04:50:49.015Z,16.13
2022-12-14T04:56:23.901Z,15.98
2022-12-14T05:02:04.184Z,11.25
2022-12-14T05:07:41.503Z,16.10
2022-12-14T05:13:11.509Z,16.05
2022-12-14T05:18:44.306Z,15.50
2022-12-14T05:24:08.806Z,17.05
2022-12-14T05:29:32.339Z,23.45
2022-12-14T05:34:57.655Z,24.70
2022-12-14T05:40:20.973Z,28.23
2022-12-14T05:45:44.463Z,31.73
2022-12-14T05:51:11.988Z,25.67
2022-12-14T05:56:35.897Z,19.88
2022-12-14T06:01:59.463Z,20.27
2022-12-14T06:07:27.783Z,20.90
2022-12-14T06:12:51.752Z,18.92
2022-12-14T06:18:17.143Z,18.50
2022-12-14T06:23:43.347Z,20.98
2022-12-14T06:29:08.934Z,21.40
2022-12-14T06:34:39.259Z,16.15
2022-12-14T06:40:11.272Z,17.60
2022-12-14T06:45:35.196Z,19.30
2022-12-14T06:51:01.861Z,19.40
2022-12-14T06:56:28.796Z,16.10
2022-12-14T07:01:52.449Z,17.80
2022-12-14T07:07:16.086Z,21.33
2022-12-14T07:12:40.557Z,20.67
2022-12-14T07:18:09.858Z,23.52
2022-12-14T07:23:39.787Z,30.60
2022-12-14T07:29:12.063Z,24.27
2022-12-14T07:34:40.622Z,17.50
2022-12-14T07:40:04.567Z,21.05
2022-12-14T07:45:31.497Z,33.40
2022-12-14T07:51:05.978Z,26.92
2022-12-14T07:56:39.828Z,23.00
2022-12-14T08:02:13.142Z,26.58
2022-12-14T08:07:41.657Z,18.10
2022-12-14T08:13:05.309Z,14.88
2022-12-14T08:18:36.736Z,17.38
2022-12-14T08:24:06.178Z,14.52
2022-12-14T08:29:29.897Z,17.38
2022-12-14T08:34:58.608Z,11.05
2022-12-14T08:40:27.946Z,13.63
2022-12-14T08:45:55.768Z,16.05
2022-12-14T08:51:21.580Z,16.52
2022-12-14T08:56:44.983Z,9.93
2022-12-14T09:02:08.552Z,14.73
2022-12-14T09:13:06.513Z,13.55
2022-12-14T09:18:31.435Z,13.23
2022-12-14T09:23:59.837Z,15.45
2022-12-14T09:29:25.369Z,11.47
2022-12-14T09:34:54.734Z,14.50
2022-12-14T09:40:28.168Z,16.52
2022-12-14T09:45:56.809Z,11.55
2022-12-14T09:51:33.015Z,16.75
2022-12-14T09:57:11.747Z,14.80
2022-12-14T10:02:50.621Z,13.68
2022-12-14T10:08:26.044Z,15.05
2022-12-14T10:14:06.348Z,20.63
2022-12-14T10:19:43.129Z,22.80
2022-12-14T10:25:14.814Z,16.73
2022-12-14T10:30:47.543Z,20.52
2022-12-14T10:36:22.010Z,18.10
2022-12-14T10:41:57.105Z,18.05
2022-12-14T10:47:35.202Z,21.05
2022-12-14T10:53:06.308Z,16.38
2022-12-14T10:58:35.889Z,16.30
2022-12-14T11:04:04.696Z,14.63
2022-12-14T11:09:34.589Z,14.35
2022-12-14T11:15:06.603Z,16.63
2022-12-14T11:20:37.186Z,18.48
2022-12-14T11:26:03.720Z,22.13
2022-12-14T11:31:33.730Z,16.08
2022-12-14T11:37:15.519Z,15.57
2022-12-14T11:42:49.273Z,19.55
2022-12-14T11:48:22.631Z,18.77
2022-12-14T11:54:03.023Z,18.10
2022-12-14T11:59:31.944Z,17.17
2022-12-14T12:05:07.036Z,18.13
2022-12-14T12:10:42.154Z,21.95
2022-12-14T12:16:14.974Z,20.75
2022-12-14T12:21:42.080Z,20.05
2022-12-14T12:27:16.943Z,25.40
2022-12-14T12:32:50.633Z,24.42
2022-12-14T12:38:26.383Z,21.98
2022-12-14T12:43:55.679Z,23.92
2022-12-14T12:49:22.057Z,24.75
2022-12-14T12:54:58.015Z,23.57
2022-12-14T13:00:30.863Z,23.08
2022-12-14T13:06:10.183Z,26.67
2022-12-14T13:11:39.383Z,24.88
2022-12-14T13:17:08.794Z,29.80
2022-12-14T13:22:38.673Z,17.27
2022-12-14T13:28:23.882Z,21.30
2022-12-14T13:34:12.290Z,21.77
2022-12-14T13:40:21.514Z,28.98
2022-12-14T13:45:50.080Z,32.25
2022-12-14T13:51:29.215Z,29.27
2022-12-14T13:57:04.397Z,29.45
2022-12-14T14:02:42.151Z,49.22
2022-12-14T14:08:34.627Z,52.38
2022-12-14T14:14:13.550Z,57.00
2022-12-14T14:19:43.700Z,59.25
2022-12-14T14:25:41.021Z,53.05
2022-12-14T14:31:10.278Z,48.30
2022-12-14T14:36:39.569Z,52.38
2022-12-14T14:42:19.608Z,51.13
2022-12-14T14:47:57.040Z,45.78
2022-12-14T14:53:29.961Z,40.95
2022-12-14T14:59:43.687Z,45.72
2022-12-14T15:05:41.900Z,41.95
2022-12-14T15:11:17.097Z,48.53
2022-12-14T15:16:52.006Z,52.05
2022-12-14T15:22:22.916Z,51.38
2022-12-14T15:27:48.953Z,48.72
2022-12-14T15:33:26.368Z,44.67
2022-12-14T15:38:55.668Z,41.67
2022-12-14T15:44:23.782Z,34.30
2022-12-14T15:49:59.352Z,48.63
2022-12-14T15:55:38.123Z,39.20
2022-12-14T16:01:14.385Z,54.17
2022-12-14T16:06:51.954Z,52.38
2022-12-14T16:12:44.453Z,42.83
2022-12-14T16:18:17.683Z,43.85
2022-12-14T16:23:50.168Z,51.05
2022-12-14T16:29:21.703Z,46.97
2022-12-14T16:41:39.014Z,47.50
2022-12-14T16:47:28.690Z,57.30
2022-12-14T16:53:25.066Z,46.00
2022-12-14T16:59:03.252Z,55.47
2022-12-14T17:04:36.388Z,59.17
2022-12-14T17:10:01.465Z,62.03
2022-12-14T17:15:32.281Z,55.92
2022-12-14T17:21:03.370Z,58.03
2022-12-14T17:26:34.078Z,54.72
2022-12-14T17:32:04.644Z,56.83
2022-12-14T17:37:36.528Z,53.10
2022-12-14T17:43:06.812Z,66.40
2022-12-14T17:48:31.554Z,67.70
2022-12-14T17:53:59.411Z,63.25
2022-12-14T17:59:22.952Z,56.30
2022-12-14T18:04:51.990Z,68.60
2022-12-14T18:10:20.478Z,49.90
2022-12-14T18:15:49.708Z,49.00
2022-12-14T18:21:22.862Z,63.13
2022-12-14T18:26:51.835Z,49.97
2022-12-14T18:32:17.249Z,58.08
2022-12-14T18:37:49.413Z,60.00
2022-12-14T18:43:17.126Z,46.25
2022-12-14T18:48:47.578Z,32.83
2022-12-14T18:54:12.909Z,38.95
2022-12-14T18:59:42.804Z,42.33
2022-12-14T19:05:08.893Z,48.65
2022-12-14T19:10:41.544Z,59.00
2022-12-14T19:16:09.375Z,65.50
2022-12-14T19:21:36.722Z,55.40
2022-12-14T19:27:02.138Z,59.03
2022-12-14T19:32:32.101Z,60.30
2022-12-14T19:37:56.353Z,57.15
2022-12-14T19:43:22.309Z,59.92
2022-12-14T19:48:47.050Z,64.80
2022-12-14T19:54:14.222Z,57.88
2022-12-14T19:59:46.498Z,53.85
2022-12-14T20:05:10.688Z,46.97
2022-12-14T20:10:39.840Z,49.13
2022-12-14T20:16:16.708Z,52.88
2022-12-14T20:21:43.228Z,42.60
2022-12-14T20:27:11.970Z,38.77
2022-12-14T20:32:41.178Z,36.92
2022-12-14T20:38:05.176Z,38.10
2022-12-14T20:43:28.995Z,35.67
2022-12-14T20:49:01.514Z,35.80
2022-12-14T20:54:31.032Z,31.23
2022-12-14T20:59:59.526Z,37.15
2022-12-14T21:05:29.035Z,28.95
2022-12-14T21:11:22.012Z,28.42
2022-12-14T21:16:45.053Z,31.10
2022-12-14T21:22:13.466Z,47.63
2022-12-14T21:27:40.570Z,32.72
2022-12-14T21:33:04.414Z,28.33
2022-12-14T21:38:31.960Z,24.02
2022-12-14T21:44:01.237Z,23.83
2022-12-14T21:49:28.983Z,32.03
2022-12-14T21:54:59.890Z,26.25
2022-12-14T22:00:25.201Z,35.25
2022-12-14T22:05:48.880Z,47.50
2022-12-14T22:11:19.143Z,54.58
2022-12-14T22:16:52.285Z,34.83
2022-12-14T22:22:21.488Z,53.92
2022-12-14T22:27:52.648Z,29.98
2022-12-14T22:33:22.199Z,30.55
2022-12-14T22:38:51.499Z,31.23
2022-12-14T22:44:22.251Z,30.13
2022-12-14T22:49:46.126Z,25.83
2022-12-14T22:55:15.202Z,37.57
2022-12-14T23:00:39.865Z,32.83
2022-12-14T23:06:19.042Z,32.03
2022-12-14T23:12:08.755Z,36.90
2022-12-14T23:17:56.561Z,39.30
2022-12-14T23:23:39.017Z,34.95
2022-12-14T23:29:19.423Z,29.90
2022-12-14T23:35:06.958Z,36.53
2022-12-14T23:40:48.046Z,32.92
2022-12-14T23:46:34.530Z,33.45
2022-12-14T23:52:23.276Z,32.00
2022-12-14T23:58:09.435Z,37.95
